sensor_id;sensor_type;location;lat;lon;timestamp;temperature;humidity
43089;DHT22;28709;52.030;5.652;2023-07-13T00:02:09;17.20;99.90
43089;DHT22;28709;52.030;5.652;2023-07-13T00:04:35;17.10;99.90
43089;DHT22;28709;52.030;5.652;2023-07-13T00:07:01;17.20;99.90
43089;DHT22;28709;52.030;5.652;2023-07-13T00:09:27;17.20;99.90
43089;DHT22;28709;52.030;5.652;2023-07-13T00:11:54;17.20;99.90
43089;DHT22;28709;52.030;5.652;2023-07-13T00:14:20;17.20;99.90
43089;DHT22;28709;52.030;5.652;2023-07-13T00:16:46;17.20;99.90
43089;DHT22;28709;52.030;5.652;2023-07-13T00:19:13;17.20;99.90
43089;DHT22;28709;52.030;5.652;2023-07-13T00:21:40;17.10;99.90
43089;DHT22;28709;52.030;5.652;2023-07-13T00:24:12;17.10;99.90
43089;DHT22;28709;52.030;5.652;2023-07-13T00:26:38;17.00;99.90
43089;DHT22;28709;52.030;5.652;2023-07-13T00:29:04;17.00;99.90
43089;DHT22;28709;52.030;5.652;2023-07-13T00:31:33;16.90;99.90
43089;DHT22;28709;52.030;5.652;2023-07-13T00:33:59;17.00;99.90
43089;DHT22;28709;52.030;5.652;2023-07-13T00:36:25;16.90;99.90
43089;DHT22;28709;52.030;5.652;2023-07-13T00:38:51;16.90;99.90
43089;DHT22;28709;52.030;5.652;2023-07-13T00:41:18;16.90;99.90
43089;DHT22;28709;52.030;5.652;2023-07-13T00:43:44;16.80;99.90
43089;DHT22;28709;52.030;5.652;2023-07-13T00:48:45;16.80;99.90
43089;DHT22;28709;52.030;5.652;2023-07-13T00:51:12;16.70;99.90
43089;DHT22;28709;52.030;5.652;2023-07-13T00:53:39;16.70;99.90
43089;DHT22;28709;52.030;5.652;2023-07-13T00:56:05;16.70;99.90
43089;DHT22;28709;52.030;5.652;2023-07-13T00:58:32;16.60;99.90
43089;DHT22;28709;52.030;5.652;2023-07-13T01:00:58;16.70;99.90
43089;DHT22;28709;52.030;5.652;2023-07-13T01:03:24;16.60;99.90
43089;DHT22;28709;52.030;5.652;2023-07-13T01:05:50;16.60;99.90
43089;DHT22;28709;52.030;5.652;2023-07-13T01:08:16;16.60;99.90
43089;DHT22;28709;52.030;5.652;2023-07-13T01:10:54;16.50;99.90
43089;DHT22;28709;52.030;5.652;2023-07-13T01:13:20;16.50;99.90
43089;DHT22;28709;52.030;5.652;2023-07-13T01:15:47;16.40;99.90
43089;DHT22;28709;52.030;5.652;2023-07-13T01:18:20;16.40;99.90
43089;DHT22;28709;52.030;5.652;2023-07-13T01:20:57;16.40;99.90
43089;DHT22;28709;52.030;5.652;2023-07-13T01:23:24;16.40;99.90
43089;DHT22;28709;52.030;5.652;2023-07-13T01:25:50;16.40;99.90
43089;DHT22;28709;52.030;5.652;2023-07-13T01:28:17;16.40;99.90
43089;DHT22;28709;52.030;5.652;2023-07-13T01:30:44;16.30;99.90
43089;DHT22;28709;52.030;5.652;2023-07-13T01:33:12;16.30;99.90
43089;DHT22;28709;52.030;5.652;2023-07-13T01:35:39;16.30;99.90
43089;DHT22;28709;52.030;5.652;2023-07-13T01:38:05;16.20;99.90
43089;DHT22;28709;52.030;5.652;2023-07-13T01:40:31;16.20;99.90
43089;DHT22;28709;52.030;5.652;2023-07-13T01:42:58;16.20;99.90
43089;DHT22;28709;52.030;5.652;2023-07-13T01:45:24;16.20;99.90
43089;DHT22;28709;52.030;5.652;2023-07-13T01:47:49;16.20;99.90
43089;DHT22;28709;52.030;5.652;2023-07-13T01:50:15;16.20;99.90
43089;DHT22;28709;52.030;5.652;2023-07-13T01:52:41;16.20;99.90
43089;DHT22;28709;52.030;5.652;2023-07-13T01:55:07;16.20;99.90
43089;DHT22;28709;52.030;5.652;2023-07-13T01:57:32;16.20;99.90
43089;DHT22;28709;52.030;5.652;2023-07-13T01:59:58;16.20;99.90
43089;DHT22;28709;52.030;5.652;2023-07-13T02:02:24;16.20;99.90
43089;DHT22;28709;52.030;5.652;2023-07-13T02:04:50;16.20;99.90
43089;DHT22;28709;52.030;5.652;2023-07-13T02:07:15;16.10;99.90
43089;DHT22;28709;52.030;5.652;2023-07-13T02:09:41;16.10;99.90
43089;DHT22;28709;52.030;5.652;2023-07-13T02:12:07;16.10;99.90
43089;DHT22;28709;52.030;5.652;2023-07-13T02:14:33;16.10;99.90
43089;DHT22;28709;52.030;5.652;2023-07-13T02:16:59;16.00;99.90
43089;DHT22;28709;52.030;5.652;2023-07-13T02:19:24;16.00;99.90
43089;DHT22;28709;52.030;5.652;2023-07-13T02:21:50;16.00;99.90
43089;DHT22;28709;52.030;5.652;2023-07-13T02:24:16;15.90;99.90
43089;DHT22;28709;52.030;5.652;2023-07-13T02:26:46;16.00;99.90
43089;DHT22;28709;52.030;5.652;2023-07-13T02:29:11;16.00;99.90
43089;DHT22;28709;52.030;5.652;2023-07-13T02:31:37;15.90;99.90
43089;DHT22;28709;52.030;5.652;2023-07-13T02:34:03;15.90;99.90
43089;DHT22;28709;52.030;5.652;2023-07-13T02:36:30;15.90;99.90
43089;DHT22;28709;52.030;5.652;2023-07-13T02:38:55;15.90;99.90
43089;DHT22;28709;52.030;5.652;2023-07-13T02:41:21;15.90;99.90
43089;DHT22;28709;52.030;5.652;2023-07-13T02:43:48;15.80;99.90
43089;DHT22;28709;52.030;5.652;2023-07-13T02:46:14;15.80;99.90
43089;DHT22;28709;52.030;5.652;2023-07-13T02:48:40;15.80;99.90
43089;DHT22;28709;52.030;5.652;2023-07-13T02:51:06;15.80;99.90
43089;DHT22;28709;52.030;5.652;2023-07-13T02:53:32;15.80;99.90
43089;DHT22;28709;52.030;5.652;2023-07-13T02:55:58;15.70;99.90
43089;DHT22;28709;52.030;5.652;2023-07-13T02:58:23;15.70;99.90
43089;DHT22;28709;52.030;5.652;2023-07-13T03:00:49;15.70;99.90
43089;DHT22;28709;52.030;5.652;2023-07-13T03:03:15;15.70;99.90
43089;DHT22;28709;52.030;5.652;2023-07-13T03:05:43;15.70;99.90
43089;DHT22;28709;52.030;5.652;2023-07-13T03:08:10;15.70;99.90
43089;DHT22;28709;52.030;5.652;2023-07-13T03:10:36;15.60;99.90
43089;DHT22;28709;52.030;5.652;2023-07-13T03:13:02;15.60;99.90
43089;DHT22;28709;52.030;5.652;2023-07-13T03:15:28;15.60;99.90
43089;DHT22;28709;52.030;5.652;2023-07-13T03:17:54;15.50;99.90
43089;DHT22;28709;52.030;5.652;2023-07-13T03:20:19;15.50;99.90
43089;DHT22;28709;52.030;5.652;2023-07-13T03:22:46;15.50;99.90
43089;DHT22;28709;52.030;5.652;2023-07-13T03:25:11;15.40;99.90
43089;DHT22;28709;52.030;5.652;2023-07-13T03:27:37;15.40;99.90
43089;DHT22;28709;52.030;5.652;2023-07-13T03:30:05;15.30;99.90
43089;DHT22;28709;52.030;5.652;2023-07-13T03:32:31;15.30;99.90
43089;DHT22;28709;52.030;5.652;2023-07-13T03:34:57;15.30;99.90
43089;DHT22;28709;52.030;5.652;2023-07-13T03:37:22;15.20;99.90
43089;DHT22;28709;52.030;5.652;2023-07-13T03:39:48;15.20;99.90
43089;DHT22;28709;52.030;5.652;2023-07-13T03:42:14;15.20;99.90
43089;DHT22;28709;52.030;5.652;2023-07-13T03:44:42;15.10;99.90
43089;DHT22;28709;52.030;5.652;2023-07-13T03:47:11;15.10;99.90
43089;DHT22;28709;52.030;5.652;2023-07-13T03:49:37;15.10;99.90
43089;DHT22;28709;52.030;5.652;2023-07-13T03:52:02;15.10;99.90
43089;DHT22;28709;52.030;5.652;2023-07-13T03:54:28;15.10;99.90
43089;DHT22;28709;52.030;5.652;2023-07-13T03:56:54;15.10;99.90
43089;DHT22;28709;52.030;5.652;2023-07-13T03:59:20;15.10;99.90
43089;DHT22;28709;52.030;5.652;2023-07-13T04:01:46;15.10;99.90
43089;DHT22;28709;52.030;5.652;2023-07-13T04:04:11;15.00;99.90
43089;DHT22;28709;52.030;5.652;2023-07-13T04:06:37;15.10;99.90
43089;DHT22;28709;52.030;5.652;2023-07-13T04:09:03;15.00;99.90
43089;DHT22;28709;52.030;5.652;2023-07-13T04:11:32;15.10;99.90
43089;DHT22;28709;52.030;5.652;2023-07-13T04:13:58;15.00;99.90
43089;DHT22;28709;52.030;5.652;2023-07-13T04:16:24;15.00;99.90
43089;DHT22;28709;52.030;5.652;2023-07-13T04:18:51;15.00;99.90
43089;DHT22;28709;52.030;5.652;2023-07-13T04:21:20;15.00;99.90
43089;DHT22;28709;52.030;5.652;2023-07-13T04:23:46;15.00;99.90
43089;DHT22;28709;52.030;5.652;2023-07-13T04:26:12;15.00;99.90
43089;DHT22;28709;52.030;5.652;2023-07-13T04:28:38;15.00;99.90
43089;DHT22;28709;52.030;5.652;2023-07-13T04:31:04;15.00;99.90
43089;DHT22;28709;52.030;5.652;2023-07-13T04:33:29;15.00;99.90
43089;DHT22;28709;52.030;5.652;2023-07-13T04:35:56;15.10;99.90
43089;DHT22;28709;52.030;5.652;2023-07-13T04:38:28;15.00;99.90
43089;DHT22;28709;52.030;5.652;2023-07-13T04:41:00;15.10;99.90
43089;DHT22;28709;52.030;5.652;2023-07-13T04:43:26;15.10;99.90
43089;DHT22;28709;52.030;5.652;2023-07-13T04:45:53;15.10;99.90
43089;DHT22;28709;52.030;5.652;2023-07-13T04:48:19;15.20;99.90
43089;DHT22;28709;52.030;5.652;2023-07-13T04:50:46;15.20;99.90
43089;DHT22;28709;52.030;5.652;2023-07-13T04:53:12;15.20;99.90
43089;DHT22;28709;52.030;5.652;2023-07-13T04:55:38;15.30;99.90
43089;DHT22;28709;52.030;5.652;2023-07-13T04:58:04;15.40;99.90
43089;DHT22;28709;52.030;5.652;2023-07-13T05:00:30;15.30;99.90
43089;DHT22;28709;52.030;5.652;2023-07-13T05:02:57;15.40;99.90
43089;DHT22;28709;52.030;5.652;2023-07-13T05:05:23;15.40;99.90
43089;DHT22;28709;52.030;5.652;2023-07-13T05:07:49;15.50;99.90
43089;DHT22;28709;52.030;5.652;2023-07-13T05:10:15;15.50;99.90
43089;DHT22;28709;52.030;5.652;2023-07-13T05:12:41;15.60;99.90
43089;DHT22;28709;52.030;5.652;2023-07-13T05:15:06;15.60;99.90
43089;DHT22;28709;52.030;5.652;2023-07-13T05:17:32;15.60;99.90
43089;DHT22;28709;52.030;5.652;2023-07-13T05:19:58;15.70;99.90
43089;DHT22;28709;52.030;5.652;2023-07-13T05:22:24;15.70;99.90
43089;DHT22;28709;52.030;5.652;2023-07-13T05:24:49;15.70;99.90
43089;DHT22;28709;52.030;5.652;2023-07-13T05:27:15;15.80;99.90
43089;DHT22;28709;52.030;5.652;2023-07-13T05:29:41;15.90;99.90
43089;DHT22;28709;52.030;5.652;2023-07-13T05:32:06;15.90;99.90
43089;DHT22;28709;52.030;5.652;2023-07-13T05:34:32;16.00;99.90
43089;DHT22;28709;52.030;5.652;2023-07-13T05:36:58;16.00;99.90
43089;DHT22;28709;52.030;5.652;2023-07-13T05:39:23;16.10;99.90
43089;DHT22;28709;52.030;5.652;2023-07-13T05:41:50;16.20;99.90
43089;DHT22;28709;52.030;5.652;2023-07-13T05:44:15;16.20;99.90
43089;DHT22;28709;52.030;5.652;2023-07-13T05:46:41;16.20;99.90
43089;DHT22;28709;52.030;5.652;2023-07-13T05:49:06;16.30;99.90
43089;DHT22;28709;52.030;5.652;2023-07-13T05:51:32;16.30;99.90
43089;DHT22;28709;52.030;5.652;2023-07-13T05:53:58;16.40;99.90
43089;DHT22;28709;52.030;5.652;2023-07-13T05:56:23;16.40;99.90
43089;DHT22;28709;52.030;5.652;2023-07-13T05:58:50;16.50;99.90
43089;DHT22;28709;52.030;5.652;2023-07-13T06:01:16;16.50;99.90
43089;DHT22;28709;52.030;5.652;2023-07-13T06:03:43;16.60;99.90
43089;DHT22;28709;52.030;5.652;2023-07-13T06:06:10;16.70;99.90
43089;DHT22;28709;52.030;5.652;2023-07-13T06:08:36;16.80;99.90
43089;DHT22;28709;52.030;5.652;2023-07-13T06:11:17;16.80;99.90
43089;DHT22;28709;52.030;5.652;2023-07-13T06:13:43;16.90;99.90
43089;DHT22;28709;52.030;5.652;2023-07-13T06:16:09;16.90;99.90
43089;DHT22;28709;52.030;5.652;2023-07-13T06:18:36;16.80;99.90
43089;DHT22;28709;52.030;5.652;2023-07-13T06:21:13;16.80;99.90
43089;DHT22;28709;52.030;5.652;2023-07-13T06:23:39;16.90;99.90
43089;DHT22;28709;52.030;5.652;2023-07-13T06:26:05;17.00;99.90
43089;DHT22;28709;52.030;5.652;2023-07-13T06:28:33;17.10;99.90
43089;DHT22;28709;52.030;5.652;2023-07-13T06:30:59;17.20;99.90
43089;DHT22;28709;52.030;5.652;2023-07-13T06:33:25;17.30;99.90
43089;DHT22;28709;52.030;5.652;2023-07-13T06:35:52;17.40;99.90
43089;DHT22;28709;52.030;5.652;2023-07-13T06:38:18;17.30;99.90
43089;DHT22;28709;52.030;5.652;2023-07-13T06:40:44;17.40;99.90
43089;DHT22;28709;52.030;5.652;2023-07-13T06:43:09;17.50;99.90
43089;DHT22;28709;52.030;5.652;2023-07-13T06:45:41;17.70;99.90
43089;DHT22;28709;52.030;5.652;2023-07-13T06:48:07;17.70;99.90
43089;DHT22;28709;52.030;5.652;2023-07-13T06:50:33;17.80;99.90
43089;DHT22;28709;52.030;5.652;2023-07-13T06:52:59;17.90;99.90
43089;DHT22;28709;52.030;5.652;2023-07-13T06:55:25;18.00;99.90
43089;DHT22;28709;52.030;5.652;2023-07-13T06:57:51;18.10;99.90
43089;DHT22;28709;52.030;5.652;2023-07-13T07:00:17;18.00;99.90
43089;DHT22;28709;52.030;5.652;2023-07-13T07:02:43;18.00;99.90
43089;DHT22;28709;52.030;5.652;2023-07-13T07:05:09;18.00;99.90
43089;DHT22;28709;52.030;5.652;2023-07-13T07:07:34;18.00;99.90
43089;DHT22;28709;52.030;5.652;2023-07-13T07:10:00;18.00;99.90
43089;DHT22;28709;52.030;5.652;2023-07-13T07:12:25;18.00;99.90
43089;DHT22;28709;52.030;5.652;2023-07-13T07:14:51;17.90;99.90
43089;DHT22;28709;52.030;5.652;2023-07-13T07:17:17;18.00;99.90
43089;DHT22;28709;52.030;5.652;2023-07-13T07:19:42;18.00;99.90
43089;DHT22;28709;52.030;5.652;2023-07-13T07:22:08;18.00;99.90
43089;DHT22;28709;52.030;5.652;2023-07-13T07:24:34;18.00;99.90
43089;DHT22;28709;52.030;5.652;2023-07-13T07:26:59;18.00;99.90
43089;DHT22;28709;52.030;5.652;2023-07-13T07:29:25;18.10;99.90
43089;DHT22;28709;52.030;5.652;2023-07-13T07:31:53;18.10;99.90
43089;DHT22;28709;52.030;5.652;2023-07-13T07:34:19;18.10;99.90
43089;DHT22;28709;52.030;5.652;2023-07-13T07:36:45;18.10;99.90
43089;DHT22;28709;52.030;5.652;2023-07-13T07:39:11;18.20;99.90
43089;DHT22;28709;52.030;5.652;2023-07-13T07:41:37;18.20;99.90
43089;DHT22;28709;52.030;5.652;2023-07-13T07:44:03;18.20;99.90
43089;DHT22;28709;52.030;5.652;2023-07-13T07:46:29;18.30;99.90
43089;DHT22;28709;52.030;5.652;2023-07-13T07:48:55;18.30;99.90
43089;DHT22;28709;52.030;5.652;2023-07-13T07:51:21;18.40;99.90
43089;DHT22;28709;52.030;5.652;2023-07-13T07:53:47;18.40;99.90
43089;DHT22;28709;52.030;5.652;2023-07-13T07:56:13;18.40;99.90
43089;DHT22;28709;52.030;5.652;2023-07-13T07:58:41;18.50;99.90
43089;DHT22;28709;52.030;5.652;2023-07-13T08:01:07;18.60;99.90
43089;DHT22;28709;52.030;5.652;2023-07-13T08:03:34;18.90;99.90
43089;DHT22;28709;52.030;5.652;2023-07-13T08:05:59;19.10;99.90
43089;DHT22;28709;52.030;5.652;2023-07-13T08:08:25;19.20;99.90
43089;DHT22;28709;52.030;5.652;2023-07-13T08:10:51;19.30;99.90
43089;DHT22;28709;52.030;5.652;2023-07-13T08:13:17;19.50;99.90
43089;DHT22;28709;52.030;5.652;2023-07-13T08:15:43;19.80;99.90
43089;DHT22;28709;52.030;5.652;2023-07-13T08:18:08;20.00;99.90
43089;DHT22;28709;52.030;5.652;2023-07-13T08:20:37;20.10;99.90
43089;DHT22;28709;52.030;5.652;2023-07-13T08:23:03;20.10;99.90
43089;DHT22;28709;52.030;5.652;2023-07-13T08:25:29;20.00;99.90
43089;DHT22;28709;52.030;5.652;2023-07-13T08:27:55;19.70;99.90
43089;DHT22;28709;52.030;5.652;2023-07-13T08:30:20;19.50;99.90
43089;DHT22;28709;52.030;5.652;2023-07-13T08:32:46;19.40;99.90
43089;DHT22;28709;52.030;5.652;2023-07-13T08:35:12;19.30;99.90
43089;DHT22;28709;52.030;5.652;2023-07-13T08:37:39;19.30;99.90
43089;DHT22;28709;52.030;5.652;2023-07-13T08:40:05;19.60;99.90
43089;DHT22;28709;52.030;5.652;2023-07-13T08:42:46;20.00;99.90
43089;DHT22;28709;52.030;5.652;2023-07-13T08:47:59;20.60;99.90
43089;DHT22;28709;52.030;5.652;2023-07-13T08:50:32;20.80;99.90
43089;DHT22;28709;52.030;5.652;2023-07-13T08:53:00;20.90;99.90
43089;DHT22;28709;52.030;5.652;2023-07-13T08:55:30;21.20;99.90
43089;DHT22;28709;52.030;5.652;2023-07-13T08:58:17;21.50;99.90
43089;DHT22;28709;52.030;5.652;2023-07-13T09:00:56;21.60;99.90
43089;DHT22;28709;52.030;5.652;2023-07-13T09:03:30;21.50;99.90
43089;DHT22;28709;52.030;5.652;2023-07-13T09:06:02;21.40;99.90
43089;DHT22;28709;52.030;5.652;2023-07-13T09:09:02;21.20;99.90
43089;DHT22;28709;52.030;5.652;2023-07-13T09:11:44;21.10;99.90
43089;DHT22;28709;52.030;5.652;2023-07-13T09:14:35;21.00;99.90
43089;DHT22;28709;52.030;5.652;2023-07-13T09:17:16;20.90;99.90
43089;DHT22;28709;52.030;5.652;2023-07-13T09:19:43;20.80;99.90
43089;DHT22;28709;52.030;5.652;2023-07-13T09:22:17;20.80;99.90
43089;DHT22;28709;52.030;5.652;2023-07-13T09:24:52;20.70;99.90
43089;DHT22;28709;52.030;5.652;2023-07-13T09:27:26;20.60;99.90
43089;DHT22;28709;52.030;5.652;2023-07-13T09:31:07;20.50;99.90
43089;DHT22;28709;52.030;5.652;2023-07-13T09:33:06;20.40;99.90
43089;DHT22;28709;52.030;5.652;2023-07-13T09:35:34;20.50;99.90
43089;DHT22;28709;52.030;5.652;2023-07-13T09:38:21;20.70;99.90
43089;DHT22;28709;52.030;5.652;2023-07-13T09:41:26;21.10;99.90
43089;DHT22;28709;52.030;5.652;2023-07-13T09:46:38;21.80;99.90
43089;DHT22;28709;52.030;5.652;2023-07-13T09:49:04;22.10;99.90
43089;DHT22;28709;52.030;5.652;2023-07-13T09:51:29;22.30;99.90
43089;DHT22;28709;52.030;5.652;2023-07-13T09:53:55;22.60;99.90
43089;DHT22;28709;52.030;5.652;2023-07-13T09:56:27;22.70;99.90
43089;DHT22;28709;52.030;5.652;2023-07-13T09:58:55;22.80;99.90
43089;DHT22;28709;52.030;5.652;2023-07-13T10:01:39;22.80;99.90
43089;DHT22;28709;52.030;5.652;2023-07-13T10:04:14;23.00;99.90
43089;DHT22;28709;52.030;5.652;2023-07-13T10:06:44;23.30;99.90
43089;DHT22;28709;52.030;5.652;2023-07-13T10:09:17;23.40;99.90
43089;DHT22;28709;52.030;5.652;2023-07-13T10:11:42;23.40;99.90
43089;DHT22;28709;52.030;5.652;2023-07-13T10:14:13;23.60;99.90
43089;DHT22;28709;52.030;5.652;2023-07-13T10:16:41;23.50;99.90
43089;DHT22;28709;52.030;5.652;2023-07-13T10:19:26;23.10;99.90
43089;DHT22;28709;52.030;5.652;2023-07-13T10:21:58;22.60;99.90
43089;DHT22;28709;52.030;5.652;2023-07-13T10:24:32;22.20;99.90
43089;DHT22;28709;52.030;5.652;2023-07-13T10:27:20;22.10;99.90
43089;DHT22;28709;52.030;5.652;2023-07-13T10:32:35;22.60;99.90
43089;DHT22;28709;52.030;5.652;2023-07-13T10:35:01;22.90;99.90
43089;DHT22;28709;52.030;5.652;2023-07-13T10:40:25;22.70;99.90
43089;DHT22;28709;52.030;5.652;2023-07-13T10:42:52;22.30;99.90
43089;DHT22;28709;52.030;5.652;2023-07-13T10:45:23;21.90;99.90
43089;DHT22;28709;52.030;5.652;2023-07-13T10:47:51;21.60;99.90
43089;DHT22;28709;52.030;5.652;2023-07-13T10:50:24;21.30;99.90
43089;DHT22;28709;52.030;5.652;2023-07-13T10:52:55;21.10;99.90
43089;DHT22;28709;52.030;5.652;2023-07-13T10:55:56;21.00;99.90
43089;DHT22;28709;52.030;5.652;2023-07-13T10:58:38;21.30;99.90
43089;DHT22;28709;52.030;5.652;2023-07-13T11:01:11;21.50;99.90
43089;DHT22;28709;52.030;5.652;2023-07-13T11:03:55;21.50;99.90
43089;DHT22;28709;52.030;5.652;2023-07-13T11:06:39;21.20;99.90
43089;DHT22;28709;52.030;5.652;2023-07-13T11:12:02;20.60;99.90
43089;DHT22;28709;52.030;5.652;2023-07-13T11:14:42;20.50;99.90
43089;DHT22;28709;52.030;5.652;2023-07-13T11:22:52;21.30;99.90
43089;DHT22;28709;52.030;5.652;2023-07-13T11:25:28;21.80;99.90
43089;DHT22;28709;52.030;5.652;2023-07-13T11:33:22;22.80;99.90
43089;DHT22;28709;52.030;5.652;2023-07-13T11:36:27;23.20;99.90
43089;DHT22;28709;52.030;5.652;2023-07-13T11:38:58;23.60;99.90
43089;DHT22;28709;52.030;5.652;2023-07-13T11:41:34;23.90;99.90
43089;DHT22;28709;52.030;5.652;2023-07-13T11:44:19;24.10;99.90
43089;DHT22;28709;52.030;5.652;2023-07-13T11:46:56;24.20;99.90
43089;DHT22;28709;52.030;5.652;2023-07-13T11:49:25;24.40;99.90
43089;DHT22;28709;52.030;5.652;2023-07-13T11:51:52;24.60;99.90
43089;DHT22;28709;52.030;5.652;2023-07-13T11:54:28;24.70;99.90
43089;DHT22;28709;52.030;5.652;2023-07-13T11:59:27;24.80;99.90
43089;DHT22;28709;52.030;5.652;2023-07-13T12:01:55;24.80;99.90
43089;DHT22;28709;52.030;5.652;2023-07-13T12:04:32;24.60;99.70
43089;DHT22;28709;52.030;5.652;2023-07-13T12:07:05;24.20;99.20
43089;DHT22;28709;52.030;5.652;2023-07-13T12:09:33;23.70;99.90
43089;DHT22;28709;52.030;5.652;2023-07-13T12:11:58;23.10;99.90
43089;DHT22;28709;52.030;5.652;2023-07-13T12:14:26;22.60;99.90
43089;DHT22;28709;52.030;5.652;2023-07-13T12:16:53;22.30;99.90
43089;DHT22;28709;52.030;5.652;2023-07-13T12:19:28;22.50;99.90
43089;DHT22;28709;52.030;5.652;2023-07-13T12:21:56;22.60;99.90
43089;DHT22;28709;52.030;5.652;2023-07-13T12:24:23;22.70;99.90
43089;DHT22;28709;52.030;5.652;2023-07-13T12:29:22;22.80;99.90
43089;DHT22;28709;52.030;5.652;2023-07-13T12:31:49;22.50;99.90
43089;DHT22;28709;52.030;5.652;2023-07-13T12:34:20;22.30;99.90
43089;DHT22;28709;52.030;5.652;2023-07-13T12:36:51;22.00;99.90
43089;DHT22;28709;52.030;5.652;2023-07-13T12:39:28;21.90;99.90
43089;DHT22;28709;52.030;5.652;2023-07-13T12:42:28;21.80;99.90
43089;DHT22;28709;52.030;5.652;2023-07-13T12:47:22;21.60;99.90
43089;DHT22;28709;52.030;5.652;2023-07-13T12:49:53;21.60;99.90
43089;DHT22;28709;52.030;5.652;2023-07-13T12:52:27;21.60;99.90
43089;DHT22;28709;52.030;5.652;2023-07-13T12:55:14;21.70;99.90
43089;DHT22;28709;52.030;5.652;2023-07-13T12:57:51;21.80;99.90
43089;DHT22;28709;52.030;5.652;2023-07-13T13:02:52;22.10;99.90
43089;DHT22;28709;52.030;5.652;2023-07-13T13:05:18;22.30;99.90
43089;DHT22;28709;52.030;5.652;2023-07-13T13:07:44;22.40;99.90
43089;DHT22;28709;52.030;5.652;2023-07-13T13:10:14;22.50;99.90
43089;DHT22;28709;52.030;5.652;2023-07-13T13:12:40;22.80;99.90
43089;DHT22;28709;52.030;5.652;2023-07-13T13:15:09;23.10;99.90
43089;DHT22;28709;52.030;5.652;2023-07-13T13:17:37;23.30;99.40
43089;DHT22;28709;52.030;5.652;2023-07-13T13:20:13;23.50;99.90
43089;DHT22;28709;52.030;5.652;2023-07-13T13:22:39;23.70;98.50
43089;DHT22;28709;52.030;5.652;2023-07-13T13:25:07;23.80;98.30
43089;DHT22;28709;52.030;5.652;2023-07-13T13:27:33;23.90;98.70
43089;DHT22;28709;52.030;5.652;2023-07-13T13:30:00;24.00;98.60
43089;DHT22;28709;52.030;5.652;2023-07-13T13:32:25;24.20;98.10
43089;DHT22;28709;52.030;5.652;2023-07-13T13:34:51;24.30;97.40
43089;DHT22;28709;52.030;5.652;2023-07-13T13:39:44;24.50;96.50
43089;DHT22;28709;52.030;5.652;2023-07-13T13:42:10;24.60;95.80
43089;DHT22;28709;52.030;5.652;2023-07-13T13:44:35;24.80;96.00
43089;DHT22;28709;52.030;5.652;2023-07-13T13:47:02;24.80;95.70
43089;DHT22;28709;52.030;5.652;2023-07-13T13:49:29;24.90;95.50
43089;DHT22;28709;52.030;5.652;2023-07-13T13:51:55;24.90;95.20
43089;DHT22;28709;52.030;5.652;2023-07-13T13:54:23;24.90;94.80
43089;DHT22;28709;52.030;5.652;2023-07-13T13:56:51;24.80;94.70
43089;DHT22;28709;52.030;5.652;2023-07-13T13:59:17;24.90;95.00
43089;DHT22;28709;52.030;5.652;2023-07-13T14:01:44;24.90;94.90
43089;DHT22;28709;52.030;5.652;2023-07-13T14:04:29;24.80;94.50
43089;DHT22;28709;52.030;5.652;2023-07-13T14:06:54;24.80;94.70
43089;DHT22;28709;52.030;5.652;2023-07-13T14:09:20;24.80;94.20
43089;DHT22;28709;52.030;5.652;2023-07-13T14:11:48;24.80;94.20
43089;DHT22;28709;52.030;5.652;2023-07-13T14:14:17;24.80;94.00
43089;DHT22;28709;52.030;5.652;2023-07-13T14:16:43;24.80;93.80
43089;DHT22;28709;52.030;5.652;2023-07-13T14:19:12;24.80;93.40
43089;DHT22;28709;52.030;5.652;2023-07-13T14:21:39;25.00;93.10
43089;DHT22;28709;52.030;5.652;2023-07-13T14:24:06;25.00;92.70
43089;DHT22;28709;52.030;5.652;2023-07-13T14:26:37;25.00;92.30
43089;DHT22;28709;52.030;5.652;2023-07-13T14:29:11;24.90;92.20
43089;DHT22;28709;52.030;5.652;2023-07-13T14:31:37;24.90;92.10
43089;DHT22;28709;52.030;5.652;2023-07-13T14:34:03;25.00;92.30
43089;DHT22;28709;52.030;5.652;2023-07-13T14:36:36;25.00;92.10
43089;DHT22;28709;52.030;5.652;2023-07-13T14:39:29;25.00;92.30
43089;DHT22;28709;52.030;5.652;2023-07-13T14:41:56;24.90;92.10
43089;DHT22;28709;52.030;5.652;2023-07-13T14:44:27;24.60;91.40
43089;DHT22;28709;52.030;5.652;2023-07-13T14:47:02;24.60;91.80
43089;DHT22;28709;52.030;5.652;2023-07-13T14:49:38;24.60;91.80
43089;DHT22;28709;52.030;5.652;2023-07-13T14:54:37;24.60;91.90
43089;DHT22;28709;52.030;5.652;2023-07-13T14:57:12;24.40;92.10
43089;DHT22;28709;52.030;5.652;2023-07-13T14:59:39;24.30;92.00
43089;DHT22;28709;52.030;5.652;2023-07-13T15:04:40;24.10;92.30
43089;DHT22;28709;52.030;5.652;2023-07-13T15:07:09;24.20;91.80
43089;DHT22;28709;52.030;5.652;2023-07-13T15:09:35;24.20;92.00
43089;DHT22;28709;52.030;5.652;2023-07-13T15:12:01;24.30;92.30
43089;DHT22;28709;52.030;5.652;2023-07-13T15:14:27;24.20;92.20
43089;DHT22;28709;52.030;5.652;2023-07-13T15:16:54;24.20;92.30
43089;DHT22;28709;52.030;5.652;2023-07-13T15:19:21;24.20;92.00
43089;DHT22;28709;52.030;5.652;2023-07-13T15:21:49;24.20;92.10
43089;DHT22;28709;52.030;5.652;2023-07-13T15:24:16;24.20;92.20
43089;DHT22;28709;52.030;5.652;2023-07-13T15:26:42;24.00;92.70
43089;DHT22;28709;52.030;5.652;2023-07-13T15:29:12;24.00;93.70
43089;DHT22;28709;52.030;5.652;2023-07-13T15:31:38;23.80;94.00
43089;DHT22;28709;52.030;5.652;2023-07-13T15:34:11;23.60;94.40
43089;DHT22;28709;52.030;5.652;2023-07-13T15:36:37;23.50;95.00
43089;DHT22;28709;52.030;5.652;2023-07-13T15:39:03;23.30;94.90
43089;DHT22;28709;52.030;5.652;2023-07-13T15:41:29;23.20;95.00
43089;DHT22;28709;52.030;5.652;2023-07-13T15:43:57;23.20;95.40
43089;DHT22;28709;52.030;5.652;2023-07-13T15:46:24;23.20;95.40
43089;DHT22;28709;52.030;5.652;2023-07-13T15:48:51;23.20;95.50
43089;DHT22;28709;52.030;5.652;2023-07-13T15:51:24;23.10;95.50
43089;DHT22;28709;52.030;5.652;2023-07-13T15:53:52;23.00;95.60
43089;DHT22;28709;52.030;5.652;2023-07-13T15:56:24;23.00;95.60
43089;DHT22;28709;52.030;5.652;2023-07-13T15:58:52;23.10;95.30
43089;DHT22;28709;52.030;5.652;2023-07-13T16:01:18;23.10;95.20
43089;DHT22;28709;52.030;5.652;2023-07-13T16:03:45;23.10;95.00
43089;DHT22;28709;52.030;5.652;2023-07-13T16:06:23;23.10;94.60
43089;DHT22;28709;52.030;5.652;2023-07-13T16:08:52;23.20;93.90
43089;DHT22;28709;52.030;5.652;2023-07-13T16:11:26;23.30;93.50
43089;DHT22;28709;52.030;5.652;2023-07-13T16:13:53;23.40;92.90
43089;DHT22;28709;52.030;5.652;2023-07-13T16:16:22;23.40;92.60
43089;DHT22;28709;52.030;5.652;2023-07-13T16:18:56;23.30;92.90
43089;DHT22;28709;52.030;5.652;2023-07-13T16:21:23;23.30;93.10
43089;DHT22;28709;52.030;5.652;2023-07-13T16:23:50;23.30;92.90
43089;DHT22;28709;52.030;5.652;2023-07-13T16:26:32;23.20;92.80